Time;durP1;ratioP1;P1;durP2;ratioP2;P2;SDS_P1;SDS_P2;PMS_P1;PMS_P2;Temp;Humidity;BMP_temperature;BMP_pressure;BME280_temperature;BME280_humidity;BME280_pressure;Samples;Min_cycle;Max_cycle;Signal;HPM_P1;HPM_P2
2023/08/09 00:00:56;;;;;;;11.75;3.55;;;;;;;26.85;61.79;99360.00;10290881;28;20046;-69
2023/08/09 00:05:56;;;;;;;15.10;3.65;;;;;;;27.51;62.56;99477.19;10290252;28;20090;-69
2023/08/09 00:10:57;;;;;;;24.70;4.40;;;;;;;27.06;63.13;99420.41;10290605;28;20503;-69
2023/08/09 00:15:58;;;;;;;17.00;4.40;;;;;;;27.35;63.98;99493.03;10289807;28;20054;-69
2023/08/09 00:21:00;;;;;;;15.38;4.05;;;;;;;27.30;64.49;99504.81;10296147;28;20177;-69
2023/08/09 00:26:01;;;;;;;25.77;4.72;;;;;;;26.90;65.29;99473.59;10297783;28;20054;-70
2023/08/09 00:31:02;;;;;;;11.00;3.70;;;;;;;26.54;65.77;99448.81;10297539;28;20058;-70
2023/08/09 00:36:03;;;;;;;28.27;5.00;;;;;;;26.82;66.92;99534.19;10297227;28;20089;-69
2023/08/09 00:41:04;;;;;;;17.02;4.05;;;;;;;26.68;67.65;99522.41;10297312;28;20050;-69
2023/08/09 00:46:05;;;;;;;17.58;4.22;;;;;;;26.47;68.25;99505.53;10296494;28;20426;-69
2023/08/09 00:51:06;;;;;;;19.45;4.50;;;;;;;26.46;69.07;99525.69;10297434;28;20054;-69
2023/08/09 00:56:07;;;;;;;14.77;4.20;;;;;;;26.42;70.13;99512.66;10296436;28;20065;-69
2023/08/09 01:01:07;;;;;;;24.08;4.75;;;;;;;26.24;70.14;99513.47;10295810;28;20034;-69
2023/08/09 01:06:11;;;;;;;16.98;4.40;;;;;;;26.18;70.50;99534.50;10295756;28;20054;-69
2023/08/09 01:11:46;;;;;;;16.67;4.25;;;;;;;26.16;72.19;99525.81;10296068;28;20130;-69
2023/08/09 01:16:49;;;;;;;48.75;6.22;;;;;;;25.95;71.67;99544.28;10296382;28;20462;-69
2023/08/09 01:21:50;;;;;;;31.33;5.07;;;;;;;25.86;72.79;99537.84;10295159;28;20646;-69
2023/08/09 01:26:51;;;;;;;16.85;4.47;;;;;;;25.78;73.57;99526.75;10294943;28;20097;-69
2023/08/09 01:31:51;;;;;;;26.77;4.97;;;;;;;25.89;74.29;99556.31;10294555;28;20097;-69
2023/08/09 01:36:56;;;;;;;35.03;5.68;;;;;;;25.83;75.08;99559.38;10294543;28;20170;-69
2023/08/09 01:41:57;;;;;;;20.67;5.65;;;;;;;25.63;76.28;99546.75;10294930;28;20515;-69
2023/08/09 01:46:58;;;;;;;76.28;7.88;;;;;;;25.62;76.48;99562.28;10311975;28;20081;-69
2023/08/09 01:51:59;;;;;;;49.60;7.07;;;;;;;25.29;77.35;99536.75;10301339;28;20070;-69
2023/08/09 01:57:00;;;;;;;67.15;7.82;;;;;;;25.34;77.58;99565.78;10318889;28;20054;-68
2023/08/09 02:02:01;;;;;;;49.28;7.40;;;;;;;25.23;77.98;99556.91;10334239;28;20074;-68
2023/08/09 02:07:02;;;;;;;73.57;7.97;;;;;;;25.30;78.36;99583.78;10315199;28;20131;-69
2023/08/09 02:12:03;;;;;;;25.75;5.07;;;;;;;24.78;78.09;99501.78;10293976;28;20121;-70
2023/08/09 02:17:05;;;;;;;22.77;5.28;;;;;;;25.19;77.65;99566.75;10305789;28;20043;-68
2023/08/09 02:22:07;;;;;;;20.42;5.50;;;;;;;25.32;78.25;99587.03;10314650;28;20073;-69
2023/08/09 02:27:09;;;;;;;26.73;5.20;;;;;;;25.33;78.20;99589.44;10321491;28;20074;-68
2023/08/09 02:32:10;;;;;;;20.42;4.78;;;;;;;25.09;78.21;99524.09;10292606;28;20043;-69
2023/08/09 02:37:11;;;;;;;23.65;4.50;;;;;;;25.60;78.30;99626.22;10298342;28;20042;-69
2023/08/09 02:42:11;;;;;;;24.85;4.93;;;;;;;25.55;77.97;99582.72;10332159;28;20045;-69
2023/08/09 02:47:12;;;;;;;23.45;5.10;;;;;;;25.89;77.13;99616.19;10302079;28;20042;-69
2023/08/09 02:52:13;;;;;;;61.15;6.32;;;;;;;26.07;77.89;99622.00;10302879;28;20042;-69
2023/08/09 02:57:14;;;;;;;28.90;5.53;;;;;;;26.34;76.86;99602.38;10331733;28;20058;-69
2023/08/09 03:02:15;;;;;;;63.45;7.57;;;;;;;27.09;76.00;99628.91;10331600;28;20042;-70
2023/08/09 03:07:16;;;;;;;47.08;7.72;;;;;;;27.90;73.11;99651.41;10331537;28;20046;-70
2023/08/09 03:12:17;;;;;;;33.53;6.22;;;;;;;28.94;69.11;99656.53;10332104;28;20038;-70
2023/08/09 03:17:18;;;;;;;77.60;8.25;;;;;;;29.25;66.24;99577.34;10331780;28;20046;-70
2023/08/09 03:22:19;;;;;;;21.80;4.97;;;;;;;30.68;62.99;99655.72;10331725;28;20044;-70
2023/08/09 03:27:19;;;;;;;24.92;4.68;;;;;;;31.41;60.90;99664.25;10330994;28;20042;-70
2023/08/09 03:32:20;;;;;;;21.83;4.70;;;;;;;32.15;56.98;99667.84;10331062;28;20626;-70
2023/08/09 03:37:21;;;;;;;21.95;4.75;;;;;;;32.51;55.67;99645.41;10331821;28;20048;-70
2023/08/09 03:42:22;;;;;;;27.40;5.85;;;;;;;33.23;54.27;99665.47;10331585;28;20046;-70
2023/08/09 03:47:22;;;;;;;30.05;4.97;;;;;;;33.74;51.46;99643.34;10300379;28;20184;-70
2023/08/09 03:52:23;;;;;;;32.83;5.10;;;;;;;34.20;49.72;99671.72;10292037;28;20046;-70
2023/08/09 03:57:24;;;;;;;67.93;25.30;;;;;;;34.79;49.22;99668.50;10299268;28;20055;-70
2023/08/09 04:02:25;;;;;;;369.85;54.13;;;;;;;35.47;48.97;99680.78;10318793;28;20069;-70
2023/08/09 04:07:26;;;;;;;47.10;12.20;;;;;;;35.48;47.07;99644.56;10315224;28;20395;-71
2023/08/09 04:12:26;;;;;;;106.50;19.07;;;;;;;36.10;47.06;99684.53;10313431;28;20047;-69
2023/08/09 04:17:28;;;;;;;61.90;25.00;;;;;;;36.78;46.22;99688.19;10318258;28;20045;-69
2023/08/09 04:22:29;;;;;;;71.30;19.75;;;;;;;36.51;45.07;99640.94;10318371;28;20473;-70
2023/08/09 04:27:31;;;;;;;100.27;12.80;;;;;;;36.77;45.04;99626.50;10322450;28;20154;-69
2023/08/09 04:32:32;;;;;;;43.72;7.85;;;;;;;37.64;42.99;99685.31;10302752;28;20046;-70
2023/08/09 04:37:32;;;;;;;71.60;8.75;;;;;;;37.78;43.02;99682.00;10316633;28;20113;-70
2023/08/09 04:42:33;;;;;;;73.67;8.17;;;;;;;37.65;43.25;99659.19;10326123;28;20400;-70
2023/08/09 04:47:34;;;;;;;64.47;7.80;;;;;;;37.43;42.44;99568.53;10313726;28;20545;-69
2023/08/09 04:52:38;;;;;;;40.25;6.40;;;;;;;38.02;41.01;99649.56;10296189;28;20192;-70
2023/08/09 04:57:40;;;;;;;34.92;6.05;;;;;;;37.70;42.43;99605.44;10296913;28;20054;-70
2023/08/09 05:02:41;;;;;;;24.15;5.35;;;;;;;38.13;40.89;99668.00;10296616;28;20090;-70
2023/08/09 05:07:42;;;;;;;18.10;4.00;;;;;;;37.65;40.92;99652.88;10295868;28;20490;-70
2023/08/09 05:12:43;;;;;;;23.70;4.93;;;;;;;37.36;40.92;99690.25;10296149;28;20039;-70
2023/08/09 05:17:43;;;;;;;64.40;13.07;;;;;;;37.09;44.05;99681.78;10296404;28;20042;-70
2023/08/09 05:22:44;;;;;;;42.60;8.57;;;;;;;36.98;44.44;99692.59;10295808;28;20066;-70
2023/08/09 05:27:47;;;;;;;34.93;6.20;;;;;;;36.82;45.03;99678.00;10295865;28;20058;-69
2023/08/09 05:32:48;;;;;;;25.35;5.20;;;;;;;36.91;43.14;99694.41;10296016;28;20049;-70
2023/08/09 05:37:49;;;;;;;24.10;4.20;;;;;;;36.95;43.13;99698.88;10293774;28;20046;-70
2023/08/09 05:42:50;;;;;;;38.60;5.47;;;;;;;36.86;43.21;99703.81;10294991;28;20039;-70
2023/08/09 05:47:51;;;;;;;19.60;3.93;;;;;;;36.79;42.77;99678.72;10294728;28;20506;-70
2023/08/09 05:52:51;;;;;;;27.50;4.80;;;;;;;36.81;42.39;99679.16;10294721;28;20062;-70
2023/08/09 05:57:52;;;;;;;22.37;4.87;;;;;;;36.73;41.06;99644.97;10294274;28;20042;-70
2023/08/09 06:02:53;;;;;;;21.60;4.20;;;;;;;36.73;40.90;99631.13;10293678;28;20133;-70
2023/08/09 06:07:55;;;;;;;26.60;5.13;;;;;;;37.29;40.85;99679.03;10294486;28;20113;-70
2023/08/09 06:12:55;;;;;;;15.95;4.38;;;;;;;37.47;39.05;99656.09;10294710;28;20451;-70
2023/08/09 06:17:56;;;;;;;79.07;8.17;;;;;;;37.74;39.21;99677.56;10293117;28;20090;-70
2023/08/09 06:22:57;;;;;;;26.10;4.40;;;;;;;37.88;38.69;99684.19;10293578;28;20117;-71
2023/08/09 06:27:59;;;;;;;19.30;4.17;;;;;;;37.71;38.35;99633.97;10293092;28;20069;-70
2023/08/09 06:33:00;;;;;;;21.23;4.20;;;;;;;38.12;36.56;99665.63;10292873;28;20046;-70
2023/08/09 06:38:00;;;;;;;23.63;4.63;;;;;;;38.32;36.79;99689.34;10292745;28;20035;-70
2023/08/09 06:43:01;;;;;;;16.73;3.77;;;;;;;38.43;36.59;99678.44;10292162;28;20503;-71
2023/08/09 06:48:02;;;;;;;24.07;4.03;;;;;;;37.91;35.76;99605.03;10291886;28;20051;-71
2023/08/09 06:53:03;;;;;;;16.50;3.93;;;;;;;37.91;35.35;99630.78;10292152;28;20113;-71
2023/08/09 06:58:04;;;;;;;15.70;3.60;;;;;;;38.28;34.99;99707.09;10291177;28;20293;-71
2023/08/09 07:03:04;;;;;;;16.37;3.43;;;;;;;38.19;34.62;99679.59;10291569;28;20049;-71
2023/08/09 07:08:05;;;;;;;30.33;5.43;;;;;;;38.52;34.14;99700.38;10291983;28;20557;-71
2023/08/09 07:13:06;;;;;;;34.37;4.97;;;;;;;38.17;32.27;99628.44;10291690;28;20042;-71
2023/08/09 07:18:07;;;;;;;12.33;3.80;;;;;;;38.50;33.27;99627.78;10291979;28;20039;-71
2023/08/09 07:23:08;;;;;;;11.65;3.72;;;;;;;39.09;31.96;99697.66;10292114;28;20452;-71
2023/08/09 07:28:09;;;;;;;13.87;3.70;;;;;;;39.09;31.54;99698.44;10292603;28;20117;-71
2023/08/09 07:33:09;;;;;;;15.17;4.00;;;;;;;39.10;31.03;99685.34;10299761;28;20039;-71
2023/08/09 07:38:11;;;;;;;14.73;3.20;;;;;;;39.32;31.09;99695.59;10300001;28;20045;-71
2023/08/09 07:43:12;;;;;;;20.30;4.10;;;;;;;39.39;31.00;99703.22;10299482;28;20073;-71
2023/08/09 07:48:12;;;;;;;12.77;3.73;;;;;;;39.55;30.84;99697.44;10298726;28;20043;-71
2023/08/09 07:53:14;;;;;;;27.10;4.37;;;;;;;39.74;31.01;99686.19;10298725;28;20059;-72
2023/08/09 07:58:15;;;;;;;35.03;4.47;;;;;;;39.76;31.36;99686.63;10299713;28;20050;-72
2023/08/09 08:03:15;;;;;;;22.30;3.95;;;;;;;39.91;30.94;99680.00;10298771;28;20053;-71
2023/08/09 08:08:19;;;;;;;16.10;3.60;;;;;;;39.82;31.04;99673.97;10298657;28;20402;-71
2023/08/09 08:13:20;;;;;;;10.00;3.45;;;;;;;39.95;29.06;99674.47;10297884;28;20316;-71
2023/08/09 08:18:21;;;;;;;13.90;3.30;;;;;;;40.20;28.87;99680.28;10297546;28;20074;-71
2023/08/09 08:23:22;;;;;;;;;;;;;;;40.48;28.44;99681.72;10298052;28;20041;-71
2023/08/09 08:28:23;;;;;;;16.17;4.10;;;;;;;40.14;28.68;99671.47;10297809;28;20008;-71
2023/08/09 08:33:24;;;;;;;17.10;3.65;;;;;;;40.13;28.36;99630.13;10297699;28;20053;-71
2023/08/09 08:38:26;;;;;;;19.05;3.80;;;;;;;40.10;27.26;99614.22;10296582;28;20102;-71
2023/08/09 08:43:27;;;;;;;19.70;4.13;;;;;;;40.27;28.42;99621.94;10307633;28;20046;-71
2023/08/09 08:48:28;;;;;;;15.40;4.10;;;;;;;40.56;28.17;99658.28;10296472;28;20134;-71
2023/08/09 08:53:29;;;;;;;;;;;;;;;40.81;27.08;99659.28;10300315;28;20054;-72
2023/08/09 08:58:30;;;;;;;;;;;;;;;40.95;27.91;99657.75;10296497;28;19929;-71
2023/08/09 09:03:31;;;;;;;;;;;;;;;41.00;26.88;99655.38;10295580;28;19929;-72
2023/08/09 09:08:41;;;;;;;16.88;3.20;;;;;;;40.77;25.80;99652.88;10292548;28;19957;-72
2023/08/09 09:13:41;;;;;;;25.65;4.10;;;;;;;40.76;26.70;99645.72;10287594;28;20129;-71
2023/08/09 09:18:43;;;;;;;22.08;3.90;;;;;;;40.75;26.75;99641.34;10294496;28;20129;-71
2023/08/09 09:23:44;;;;;;;12.95;3.25;;;;;;;40.51;26.02;99620.50;10293816;28;20396;-71
2023/08/09 09:28:47;;;;;;;21.90;4.07;;;;;;;40.72;25.81;99633.78;10298618;28;20038;-71
2023/08/09 09:33:49;;;;;;;17.25;3.63;;;;;;;40.64;25.88;99634.91;10293528;28;20046;-72
2023/08/09 09:38:53;;;;;;;17.58;4.07;;;;;;;40.64;26.59;99632.13;10293807;28;20038;-71
2023/08/09 09:43:55;;;;;;;14.82;3.90;;;;;;;40.84;26.27;99630.66;10301662;28;20632;-72
2023/08/09 09:49:04;;;;;;;12.27;3.80;;;;;;;41.02;25.13;99655.00;10293021;28;20042;-73
2023/08/09 09:54:05;;;;;;;16.65;3.88;;;;;;;40.82;25.23;99607.94;10291794;28;20050;-72
2023/08/09 09:59:07;;;;;;;;;;;;;;;41.32;26.25;99646.41;10293683;28;20042;-72
2023/08/09 10:04:11;;;;;;;10.93;3.72;;;;;;;41.28;25.54;99638.03;10292034;28;19929;-72
2023/08/09 10:09:13;;;;;;;9.18;2.97;;;;;;;40.84;25.70;99574.16;10304690;28;20046;-71
2023/08/09 10:14:16;;;;;;;17.00;4.07;;;;;;;40.83;24.38;99578.13;10296609;28;20054;-71
2023/08/09 10:19:20;;;;;;;17.48;3.60;;;;;;;41.24;23.78;99642.78;10327797;28;20042;-71
2023/08/09 10:24:21;;;;;;;14.07;3.38;;;;;;;41.45;24.66;99630.09;10334379;28;20125;-71
2023/08/09 10:29:23;;;;;;;16.92;4.10;;;;;;;41.40;24.29;99645.22;10295436;28;20562;-71
2023/08/09 10:34:35;;;;;;;8.15;3.08;;;;;;;41.43;25.41;99638.06;10292623;28;20544;-71
2023/08/09 10:39:37;;;;;;;11.60;3.20;;;;;;;41.26;23.89;99595.81;10300453;28;20041;-71
2023/08/09 10:44:43;;;;;;;14.57;3.55;;;;;;;41.60;24.61;99637.31;10321274;28;20098;-72
2023/08/09 10:49:48;;;;;;;19.35;3.65;;;;;;;41.60;23.81;99639.31;10293022;28;20108;-72
2023/08/09 12:36:48;;;;;;;18.45;3.30;;;;;;;41.34;21.49;99577.09;10570855;27;20421;-71
2023/08/09 12:41:49;;;;;;;22.08;4.30;;;;;;;41.41;22.84;99568.78;10489273;28;20569;-71
2023/08/09 12:46:50;;;;;;;12.15;3.45;;;;;;;41.32;21.44;99576.72;10490483;28;20043;-69
2023/08/09 12:51:51;;;;;;;13.23;3.45;;;;;;;40.72;21.47;99521.59;10483057;28;20036;-69
2023/08/09 12:56:52;;;;;;;12.27;3.25;;;;;;;40.92;21.91;99563.81;10486771;28;20048;-69
2023/08/09 13:01:53;;;;;;;10.88;3.20;;;;;;;40.86;22.50;99566.19;10488459;28;20055;-69
2023/08/09 13:06:54;;;;;;;12.23;3.70;;;;;;;40.93;22.01;99582.16;10489387;28;20131;-69
2023/08/09 13:12:09;;;;;;;16.52;3.75;;;;;;;40.98;20.90;99582.53;10488877;28;20036;-70
2023/08/09 13:17:10;;;;;;;17.48;3.60;;;;;;;40.52;22.00;99569.19;10481813;28;20055;-70
2023/08/09 13:22:10;;;;;;;12.25;3.28;;;;;;;40.49;22.52;99592.25;10467120;28;20033;-70
2023/08/09 13:27:12;;;;;;;8.35;3.10;;;;;;;40.07;23.46;99595.50;10475930;28;20147;-70
2023/08/09 13:32:13;;;;;;;9.10;3.00;;;;;;;39.59;22.91;99573.22;10464983;28;20587;-70
2023/08/09 13:37:14;;;;;;;16.88;3.38;;;;;;;39.23;22.76;99534.75;10475249;28;20044;-74
2023/08/09 13:42:16;;;;;;;15.27;3.80;;;;;;;39.26;23.47;99556.19;10468038;28;20385;-70
2023/08/09 13:47:16;;;;;;;12.80;3.20;;;;;;;39.29;23.00;99557.47;10452411;28;20070;-70
2023/08/09 13:52:17;;;;;;;13.20;3.80;;;;;;;39.26;23.20;99580.41;10450171;28;20033;-70
2023/08/09 13:57:21;;;;;;;8.40;2.83;;;;;;;38.73;23.14;99528.59;10449884;28;20044;-70
2023/08/09 14:02:22;;;;;;;11.23;2.95;;;;;;;38.65;22.65;99523.31;10459944;28;20044;-70
2023/08/09 14:07:22;;;;;;;32.70;3.77;;;;;;;39.09;22.34;99587.34;10456461;28;20045;-70
2023/08/09 14:12:23;;;;;;;5.60;2.83;;;;;;;38.99;22.75;99601.91;10454115;28;20143;-70
2023/08/09 14:17:24;;;;;;;14.67;3.30;;;;;;;38.83;23.11;99588.19;10449211;28;20065;-71
2023/08/09 14:22:25;;;;;;;12.53;3.40;;;;;;;38.40;23.27;99529.34;10446338;28;20056;-71
2023/08/09 14:27:25;;;;;;;27.07;3.40;;;;;;;38.58;23.34;99594.22;10437425;28;20040;-70
2023/08/09 14:32:26;;;;;;;23.83;4.13;;;;;;;38.57;23.95;99597.38;10433778;28;20068;-70
2023/08/09 14:37:27;;;;;;;12.67;4.10;;;;;;;38.45;23.47;99606.72;10450099;28;20045;-70
2023/08/09 14:42:28;;;;;;;9.53;3.00;;;;;;;38.30;23.65;99604.88;10458872;28;20564;-70
2023/08/09 14:47:29;;;;;;;35.40;4.53;;;;;;;38.11;23.19;99612.13;10458660;28;20412;-70
2023/08/09 14:52:30;;;;;;;54.58;6.45;;;;;;;37.59;23.29;99558.13;10457804;28;20133;-71
2023/08/09 14:57:31;;;;;;;48.13;5.38;;;;;;;37.89;22.67;99632.31;10457144;28;20036;-70
2023/08/09 15:02:33;;;;;;;59.35;6.07;;;;;;;37.42;23.72;99589.06;10457370;28;20041;-70
2023/08/09 15:07:34;;;;;;;64.77;6.63;;;;;;;37.34;23.40;99587.34;10457055;28;20052;-70
2023/08/09 15:12:35;;;;;;;12.87;3.33;;;;;;;37.13;22.71;99571.13;10457009;28;20747;-70
2023/08/09 15:17:35;;;;;;;37.40;5.53;;;;;;;37.47;23.06;99646.97;10457360;28;20271;-70
2023/08/09 15:22:36;;;;;;;13.93;3.30;;;;;;;37.42;22.90;99658.31;10456357;28;20040;-70
2023/08/09 15:27:37;;;;;;;25.27;3.90;;;;;;;37.06;22.93;99621.59;10457449;28;20044;-70
2023/08/09 15:32:38;;;;;;;20.53;3.80;;;;;;;37.20;23.25;99666.19;10454983;28;20053;-70
2023/08/09 15:37:39;;;;;;;11.63;3.20;;;;;;;37.02;23.37;99676.09;10454622;28;20123;-70
2023/08/09 15:42:42;;;;;;;109.30;10.03;;;;;;;36.55;26.21;99671.44;10455309;28;20056;-70
2023/08/09 15:47:45;;;;;;;28.00;4.65;;;;;;;35.99;26.68;99658.56;10456533;28;20048;-70
2023/08/09 15:52:46;;;;;;;58.78;7.78;;;;;;;35.80;28.52;99694.38;10454958;28;20450;-70
2023/08/09 15:57:50;;;;;;;34.65;6.50;;;;;;;35.18;32.27;99682.72;10455828;28;20036;-71
2023/08/09 16:02:53;;;;;;;29.33;6.20;;;;;;;35.07;33.72;99725.78;10454713;28;20045;-70
2023/08/09 16:07:54;;;;;;;81.38;8.27;;;;;;;34.72;36.02;99727.03;10455148;28;20447;-70
2023/08/09 16:12:55;;;;;;;63.72;8.02;;;;;;;34.49;36.63;99728.59;10455197;28;20098;-70
2023/08/09 16:17:56;;;;;;;27.83;6.13;;;;;;;33.90;36.46;99688.41;10454130;28;20049;-70
2023/08/09 16:22:57;;;;;;;33.70;6.03;;;;;;;33.92;39.10;99768.75;10454926;28;20511;-70
2023/08/09 16:27:57;;;;;;;73.40;9.07;;;;;;;33.85;37.02;99779.53;10453121;28;20385;-70
2023/08/09 16:32:58;;;;;;;178.95;20.25;;;;;;;34.27;36.96;99790.50;10454103;28;20144;-73
2023/08/09 16:37:59;;;;;;;175.23;17.52;;;;;;;34.61;36.39;99799.56;10454902;28;20045;-71
2023/08/09 16:43:00;;;;;;;81.55;12.07;;;;;;;34.74;36.02;99809.47;10453572;28;20048;-72
2023/08/09 16:48:00;;;;;;;55.47;9.60;;;;;;;34.73;36.35;99813.34;10454767;28;20409;-70
2023/08/09 16:53:01;;;;;;;71.88;9.52;;;;;;;34.67;36.51;99815.56;10453919;28;20124;-72
2023/08/09 16:58:02;;;;;;;70.20;10.15;;;;;;;34.51;36.84;99807.09;10454629;28;20075;-75
2023/08/09 17:03:04;;;;;;;55.65;9.02;;;;;;;34.58;36.79;99833.34;10453001;28;20055;-75
2023/08/09 17:08:05;;;;;;;69.53;9.37;;;;;;;34.45;36.83;99826.97;10452999;28;20128;-72
2023/08/09 17:13:07;;;;;;;57.53;8.32;;;;;;;34.35;37.29;99839.25;10454143;28;20144;-72
2023/08/09 17:18:08;;;;;;;41.20;7.95;;;;;;;34.11;37.43;99825.38;10452449;28;20033;-70
2023/08/09 17:23:09;;;;;;;40.97;6.88;;;;;;;34.02;37.75;99804.16;10459573;28;20071;-71
2023/08/09 17:28:10;;;;;;;45.20;7.28;;;;;;;33.78;37.49;99748.97;10461686;28;20492;-75
2023/08/09 17:33:11;;;;;;;16.55;5.57;;;;;;;33.89;37.33;99802.50;10457099;28;20566;-71
2023/08/09 17:38:12;;;;;;;16.05;5.28;;;;;;;33.91;37.34;99830.53;10460539;28;20136;-70
2023/08/09 17:43:13;;;;;;;12.90;4.10;;;;;;;33.44;36.96;99775.59;10455539;28;20056;-71
2023/08/09 17:48:13;;;;;;;11.00;4.63;;;;;;;33.70;36.89;99832.47;10434346;28;20041;-71
2023/08/09 17:53:14;;;;;;;12.85;4.55;;;;;;;33.45;37.77;99821.28;10445968;28;20033;-71
2023/08/09 17:58:15;;;;;;;11.05;5.22;;;;;;;33.44;38.24;99843.63;10449798;28;20041;-71
2023/08/09 18:03:16;;;;;;;14.15;5.07;;;;;;;33.26;38.42;99816.19;10436384;28;20394;-71
2023/08/09 18:08:17;;;;;;;9.05;4.60;;;;;;;33.10;38.62;99798.66;10438377;28;20045;-71
2023/08/09 18:13:17;;;;;;;10.63;3.92;;;;;;;32.96;38.18;99824.41;10448581;28;20390;-71
2023/08/09 18:18:18;;;;;;;22.65;4.93;;;;;;;33.09;37.85;99858.41;10452975;28;20033;-71
2023/08/09 18:23:19;;;;;;;21.10;6.28;;;;;;;32.70;37.94;99733.78;10445159;28;20106;-72
2023/08/09 18:28:20;;;;;;;33.63;6.53;;;;;;;32.94;38.31;99754.38;10437878;28;20036;-72
2023/08/09 18:33:22;;;;;;;30.60;6.97;;;;;;;33.17;38.47;99799.72;10438868;28;20504;-72
2023/08/09 18:38:22;;;;;;;48.60;7.35;;;;;;;32.81;38.55;99747.16;10440646;28;20041;-72
2023/08/09 18:43:23;;;;;;;40.17;6.53;;;;;;;32.71;39.76;99757.38;10447104;28;20451;-72
2023/08/09 18:48:25;;;;;;;43.55;8.35;;;;;;;32.65;41.15;99788.97;10440036;28;20060;-72
2023/08/09 18:53:26;;;;;;;33.57;7.27;;;;;;;32.50;42.03;99790.31;10447153;28;20086;-71
2023/08/09 18:58:26;;;;;;;40.88;7.18;;;;;;;32.22;42.70;99776.13;10445558;28;20492;-72
2023/08/09 19:03:27;;;;;;;29.95;6.88;;;;;;;32.02;43.13;99754.84;10433321;28;20033;-73
2023/08/09 19:08:28;;;;;;;52.00;8.75;;;;;;;31.83;43.54;99736.72;10448057;28;20045;-71
2023/08/09 19:13:29;;;;;;;36.95;7.25;;;;;;;31.31;45.01;99684.53;10457080;28;20091;-71
2023/08/09 19:18:34;;;;;;;43.40;7.65;;;;;;;31.60;45.14;99749.03;10457361;28;20040;-71
2023/08/09 19:23:36;;;;;;;27.52;7.20;;;;;;;31.34;46.64;99735.25;10456800;28;20044;-71
2023/08/09 19:28:37;;;;;;;36.80;6.95;;;;;;;31.12;46.75;99720.53;10456199;28;20045;-71
2023/08/09 19:33:37;;;;;;;28.00;6.28;;;;;;;30.92;47.86;99723.88;10456406;28;20060;-71
2023/08/09 19:38:39;;;;;;;29.90;6.43;;;;;;;30.67;47.90;99717.16;10455706;28;20068;-71
2023/08/09 19:43:39;;;;;;;35.42;6.88;;;;;;;30.44;47.73;99676.13;10455793;28;20477;-71
2023/08/09 19:48:42;;;;;;;27.48;7.03;;;;;;;30.64;48.25;99734.25;10456847;28;20032;-71
2023/08/09 19:53:43;;;;;;;;;;;;;;;30.80;47.40;99743.69;10456063;28;20060;-71
2023/08/09 19:58:44;;;;;;;45.90;6.97;;;;;;;30.45;48.37;99739.97;10455312;28;19912;-71
2023/08/09 20:03:45;;;;;;;41.47;6.18;;;;;;;30.10;48.00;99704.16;10455115;28;20041;-71
2023/08/09 20:08:45;;;;;;;28.58;6.15;;;;;;;30.27;48.19;99746.47;10454716;28;20045;-71
2023/08/09 20:13:46;;;;;;;22.45;5.50;;;;;;;30.03;48.22;99726.50;10454812;28;20041;-70
2023/08/09 20:18:47;;;;;;;25.85;5.60;;;;;;;30.19;48.06;99781.72;10455195;28;20045;-70
2023/08/09 20:23:48;;;;;;;21.55;5.20;;;;;;;30.10;47.10;99767.16;10454778;28;20067;-71
2023/08/09 20:28:49;;;;;;;20.42;5.32;;;;;;;30.13;47.46;99774.75;10453809;28;20098;-71
2023/08/09 20:33:50;;;;;;;18.23;4.60;;;;;;;29.74;47.62;99731.63;10454450;28;20580;-71
2023/08/09 20:38:50;;;;;;;13.93;4.10;;;;;;;29.95;47.61;99773.81;10453799;28;20497;-71
2023/08/09 20:43:51;;;;;;;13.77;4.30;;;;;;;29.34;47.97;99704.84;10453554;28;20105;-71
2023/08/09 20:48:53;;;;;;;9.63;3.97;;;;;;;29.51;48.71;99755.38;10454266;28;20378;-71
2023/08/09 20:53:54;;;;;;;11.97;4.27;;;;;;;29.56;48.98;99772.50;10454905;28;20033;-71
2023/08/09 20:58:55;;;;;;;21.83;4.85;;;;;;;28.83;49.65;99689.53;10460716;28;20045;-71
2023/08/09 21:03:56;;;;;;;20.20;4.80;;;;;;;29.21;50.40;99767.81;10461624;28;20044;-71
2023/08/09 21:08:57;;;;;;;13.93;4.55;;;;;;;28.84;51.67;99732.16;10461551;28;20033;-71
2023/08/09 21:13:58;;;;;;;14.68;4.60;;;;;;;28.87;51.47;99763.56;10462086;28;20044;-71
2023/08/09 21:18:58;;;;;;;8.75;4.43;;;;;;;28.59;52.87;99760.78;10461032;28;20090;-71
2023/08/09 21:23:59;;;;;;;15.95;4.75;;;;;;;28.34;53.49;99742.91;10460741;28;20063;-71
2023/08/09 21:29:12;;;;;;;13.90;5.43;;;;;;;27.55;54.54;99652.78;10460163;28;20112;-71
2023/08/09 21:34:12;;;;;;;;;;;;;;;28.48;53.22;99766.75;10461313;28;20057;-71
2023/08/09 21:39:13;;;;;;;16.42;5.00;;;;;;;27.72;55.33;99669.41;10460622;28;19984;-71
2023/08/09 21:44:14;;;;;;;10.77;4.60;;;;;;;27.85;55.50;99714.28;10459898;28;20405;-71
2023/08/09 21:49:15;;;;;;;18.85;5.25;;;;;;;27.44;56.66;99670.44;10460443;28;20099;-71
2023/08/09 21:54:16;;;;;;;12.23;4.90;;;;;;;27.49;56.89;99700.34;10458592;28;20041;-71
2023/08/09 21:59:16;;;;;;;12.27;4.97;;;;;;;27.51;56.83;99719.97;10459981;28;20052;-71
2023/08/09 22:04:17;;;;;;;16.52;4.32;;;;;;;27.44;57.46;99735.91;10459246;28;20048;-71
2023/08/09 22:09:18;;;;;;;23.27;5.28;;;;;;;27.35;58.25;99735.75;10459788;28;20098;-71
2023/08/09 22:14:19;;;;;;;29.42;5.68;;;;;;;27.15;59.12;99734.09;10459291;28;20198;-71
2023/08/09 22:19:20;;;;;;;12.52;5.30;;;;;;;27.10;60.39;99747.75;10459248;28;20041;-71
2023/08/09 22:24:21;;;;;;;15.63;5.32;;;;;;;27.05;60.31;99734.22;10457549;28;20127;-71
2023/08/09 22:29:22;;;;;;;12.77;5.15;;;;;;;27.07;59.63;99759.25;10457636;28;20378;-71
2023/08/09 22:34:22;;;;;;;19.58;5.18;;;;;;;26.87;60.77;99771.22;10458628;28;20224;-71
2023/08/09 22:39:23;;;;;;;13.27;5.80;;;;;;;26.70;61.95;99746.34;10458361;28;20096;-71
2023/08/09 22:44:24;;;;;;;19.90;5.85;;;;;;;26.68;62.01;99746.63;10458609;28;20539;-71
2023/08/09 22:49:25;;;;;;;17.50;5.80;;;;;;;26.67;61.77;99758.63;10458634;28;20040;-71
2023/08/09 22:54:25;;;;;;;16.33;5.32;;;;;;;26.42;62.60;99725.09;10457980;28;20037;-71
2023/08/09 22:59:26;;;;;;;30.42;5.78;;;;;;;26.15;62.48;99670.38;10457691;28;20075;-71
2023/08/09 23:04:27;;;;;;;15.93;6.05;;;;;;;26.54;62.17;99748.44;10457270;28;20528;-71
2023/08/09 23:09:28;;;;;;;13.80;5.55;;;;;;;26.54;62.69;99746.50;10455483;28;20036;-71
2023/08/09 23:14:28;;;;;;;16.20;6.00;;;;;;;26.31;62.99;99711.84;10456072;28;20043;-71
2023/08/09 23:19:29;;;;;;;20.15;5.90;;;;;;;25.91;64.47;99673.84;10455427;28;20067;-71
2023/08/09 23:24:30;;;;;;;20.27;5.75;;;;;;;26.17;65.07;99725.31;10456746;28;20049;-71
2023/08/09 23:29:31;;;;;;;9.52;5.72;;;;;;;26.06;65.20;99740.16;10456562;28;20111;-71
2023/08/09 23:34:32;;;;;;;18.27;6.53;;;;;;;26.04;64.91;99745.84;10455921;28;20473;-71
2023/08/09 23:39:32;;;;;;;14.82;6.18;;;;;;;25.83;66.20;99733.50;10456167;28;20186;-71
2023/08/09 23:44:33;;;;;;;13.15;5.43;;;;;;;25.84;67.25;99744.09;10456064;28;20542;-71
2023/08/09 23:49:34;;;;;;;14.13;6.18;;;;;;;25.74;68.24;99738.72;10455118;28;20053;-71
2023/08/09 23:54:35;;;;;;;14.23;6.05;;;;;;;24.87;68.53;99619.63;10455501;28;20123;-71
2023/08/09 23:59:36;;;;;;;13.10;5.90;;;;;;;25.60;69.02;99726.84;10454902;28;20452;-71
